createdAt,value
2022-10-18T00:00:20.919Z,16.79
2022-10-18T00:02:48.114Z,16.77
2022-10-18T00:05:16.447Z,16.76
2022-10-18T00:07:43.686Z,16.74
2022-10-18T00:10:11.066Z,16.73
2022-10-18T00:12:38.664Z,16.73
2022-10-18T00:15:07.681Z,16.70
2022-10-18T00:17:36.046Z,16.68
2022-10-18T00:20:03.977Z,16.71
2022-10-18T00:22:31.441Z,16.72
2022-10-18T00:24:58.903Z,16.73
2022-10-18T00:27:26.134Z,16.76
2022-10-18T00:29:54.203Z,16.83
2022-10-18T00:32:21.485Z,16.85
2022-10-18T00:34:48.874Z,16.89
2022-10-18T00:37:16.239Z,16.87
2022-10-18T00:39:43.682Z,16.85
2022-10-18T00:42:19.445Z,16.87
2022-10-18T00:44:46.589Z,16.82
2022-10-18T00:47:15.415Z,16.78
2022-10-18T00:49:53.274Z,16.75
2022-10-18T00:52:24.497Z,16.74
2022-10-18T00:54:53.420Z,16.75
2022-10-18T00:57:20.983Z,16.77
2022-10-18T00:59:48.455Z,16.80
2022-10-18T01:02:18.340Z,16.82
2022-10-18T01:04:47.151Z,16.83
2022-10-18T01:07:41.838Z,16.94
2022-10-18T01:10:27.242Z,16.96
2022-10-18T01:13:25.964Z,17.03
2022-10-18T01:16:11.830Z,17.03
2022-10-18T01:18:49.097Z,17.03
2022-10-18T01:21:32.741Z,17.04
2022-10-18T01:24:30.795Z,16.95
2022-10-18T01:27:21.141Z,16.95
2022-10-18T01:30:17.624Z,16.90
2022-10-18T01:32:54.265Z,16.91
2022-10-18T01:35:44.758Z,16.96
2022-10-18T01:38:17.073Z,17.03
2022-10-18T01:40:47.507Z,17.10
2022-10-18T01:43:15.902Z,17.14
2022-10-18T01:45:43.210Z,17.15
2022-10-18T01:48:11.381Z,17.16
2022-10-18T01:50:38.572Z,17.20
2022-10-18T01:53:05.769Z,17.20
2022-10-18T01:55:39.945Z,17.21
2022-10-18T01:58:17.567Z,17.22
2022-10-18T02:00:44.953Z,17.24
2022-10-18T02:03:23.389Z,17.25
2022-10-18T02:05:59.118Z,17.25
2022-10-18T02:08:51.733Z,17.22
2022-10-18T02:11:19.178Z,17.24
2022-10-18T02:13:55.747Z,17.27
2022-10-18T02:16:28.536Z,17.25
2022-10-18T02:19:02.484Z,17.25
2022-10-18T02:21:30.527Z,17.27
2022-10-18T02:23:58.613Z,17.21
2022-10-18T02:26:26.299Z,17.21
2022-10-18T02:28:53.668Z,17.25
2022-10-18T02:31:21.842Z,17.28
2022-10-18T02:34:15.105Z,17.32
2022-10-18T02:36:50.005Z,17.28
2022-10-18T02:39:23.548Z,17.26
2022-10-18T02:41:50.781Z,17.25
2022-10-18T02:44:18.040Z,17.27
2022-10-18T02:46:45.726Z,17.28
2022-10-18T02:49:12.940Z,17.27
2022-10-18T02:51:40.137Z,17.25
2022-10-18T02:54:08.410Z,17.26
2022-10-18T02:56:36.300Z,17.30
2022-10-18T02:59:05.025Z,17.32
2022-10-18T03:01:33.141Z,17.21
2022-10-18T03:04:00.662Z,17.18
2022-10-18T03:06:27.865Z,17.28
2022-10-18T03:08:55.289Z,17.33
2022-10-18T03:11:22.813Z,17.30
2022-10-18T03:13:51.225Z,17.30
2022-10-18T03:16:18.537Z,17.22
2022-10-18T03:18:45.876Z,17.19
2022-10-18T03:21:13.084Z,17.11
2022-10-18T03:23:42.191Z,17.15
2022-10-18T03:26:09.496Z,17.12
2022-10-18T03:28:36.777Z,17.11
2022-10-18T03:31:05.187Z,17.09
2022-10-18T03:33:33.124Z,17.05
2022-10-18T03:36:00.376Z,17.08
2022-10-18T03:38:27.942Z,17.11
2022-10-18T03:40:55.160Z,17.14
2022-10-18T03:43:22.643Z,17.16
2022-10-18T03:45:49.961Z,17.12
2022-10-18T03:48:17.172Z,17.08
2022-10-18T03:50:44.746Z,17.10
2022-10-18T03:53:16.384Z,17.07
2022-10-18T03:55:43.622Z,17.05
2022-10-18T03:58:11.013Z,17.06
2022-10-18T04:00:38.362Z,17.02
2022-10-18T04:03:05.836Z,16.97
2022-10-18T04:05:34.413Z,16.96
2022-10-18T04:08:01.620Z,16.90
2022-10-18T04:10:28.919Z,16.91
2022-10-18T04:12:56.139Z,16.94
2022-10-18T04:15:23.411Z,16.98
2022-10-18T04:17:50.630Z,17.00
2022-10-18T04:20:18.035Z,16.99
2022-10-18T04:22:45.241Z,16.97
2022-10-18T04:25:12.449Z,16.98
2022-10-18T04:27:40.780Z,16.95
2022-10-18T04:30:08.385Z,16.92
2022-10-18T04:32:35.774Z,16.88
2022-10-18T04:35:04.043Z,16.86
2022-10-18T04:37:31.743Z,16.80
2022-10-18T04:39:59.116Z,16.80
2022-10-18T04:42:26.396Z,16.79
2022-10-18T04:44:53.585Z,16.83
2022-10-18T04:47:20.827Z,16.87
2022-10-18T04:49:48.025Z,16.86
2022-10-18T04:52:15.319Z,16.88
2022-10-18T04:54:42.529Z,16.90
2022-10-18T04:57:09.934Z,16.90
2022-10-18T04:59:37.393Z,16.91
2022-10-18T05:02:05.094Z,16.88
2022-10-18T05:04:32.332Z,16.83
2022-10-18T05:06:59.708Z,16.81
2022-10-18T05:09:27.035Z,16.80
2022-10-18T05:11:54.230Z,16.83
2022-10-18T05:14:21.440Z,16.83
2022-10-18T05:16:48.673Z,16.83
2022-10-18T05:19:15.906Z,16.79
2022-10-18T05:21:44.084Z,16.76
2022-10-18T05:24:12.445Z,16.75
2022-10-18T05:26:39.656Z,16.70
2022-10-18T05:29:07.345Z,16.63
2022-10-18T05:31:34.659Z,16.59
2022-10-18T05:34:02.216Z,16.54
2022-10-18T05:36:29.432Z,16.54
2022-10-18T05:38:58.655Z,16.52
2022-10-18T05:41:28.228Z,16.52
2022-10-18T05:43:55.418Z,16.56
2022-10-18T05:46:22.646Z,16.57
2022-10-18T05:48:51.402Z,16.50
2022-10-18T05:51:19.399Z,16.44
2022-10-18T05:53:46.623Z,16.37
2022-10-18T05:56:14.404Z,16.32
2022-10-18T05:58:42.562Z,16.36
2022-10-18T06:01:10.588Z,16.33
2022-10-18T06:03:37.799Z,16.21
2022-10-18T06:06:10.114Z,16.12
2022-10-18T06:08:38.179Z,16.12
2022-10-18T06:11:23.512Z,16.17
2022-10-18T06:13:51.600Z,16.15
2022-10-18T06:16:22.630Z,16.08
2022-10-18T06:18:52.509Z,16.02
2022-10-18T06:21:20.779Z,15.97
2022-10-18T06:23:52.106Z,15.96
2022-10-18T06:26:21.855Z,15.92
2022-10-18T06:28:49.247Z,15.95
2022-10-18T06:31:16.713Z,15.83
2022-10-18T06:33:43.957Z,15.83
2022-10-18T06:36:19.580Z,15.89
2022-10-18T06:38:46.842Z,15.94
2022-10-18T06:41:14.093Z,15.92
2022-10-18T06:43:41.274Z,15.97
2022-10-18T06:46:09.111Z,15.98
2022-10-18T06:48:36.952Z,15.98
2022-10-18T06:51:05.800Z,15.98
2022-10-18T06:53:40.814Z,16.03
2022-10-18T06:56:13.305Z,16.04
2022-10-18T06:58:41.097Z,16.11
2022-10-18T07:01:13.780Z,16.13
2022-10-18T07:03:48.151Z,16.04
2022-10-18T07:06:17.678Z,16.13
2022-10-18T07:08:45.698Z,16.19
2022-10-18T07:11:25.575Z,16.14
2022-10-18T07:13:55.357Z,16.17
2022-10-18T07:16:22.608Z,16.18
2022-10-18T07:19:23.199Z,16.19
2022-10-18T07:21:51.480Z,16.27
2022-10-18T07:24:18.722Z,16.33
2022-10-18T07:26:45.981Z,16.35
2022-10-18T07:29:13.447Z,16.38
2022-10-18T07:31:41.116Z,16.41
2022-10-18T07:34:11.009Z,16.40
2022-10-18T07:36:45.378Z,16.44
2022-10-18T07:39:12.569Z,16.46
2022-10-18T07:41:39.908Z,16.50
2022-10-18T07:44:09.988Z,16.56
2022-10-18T07:46:37.279Z,16.50
2022-10-18T07:49:04.751Z,16.48
2022-10-18T07:51:48.955Z,16.44
2022-10-18T07:54:18.277Z,16.44
2022-10-18T07:56:46.461Z,16.40
2022-10-18T07:59:45.129Z,16.41
2022-10-18T08:02:14.834Z,16.45
2022-10-18T08:04:42.080Z,16.48
2022-10-18T08:07:09.321Z,16.54
2022-10-18T08:09:36.549Z,16.54
2022-10-18T08:12:06.313Z,16.56
2022-10-18T08:14:33.681Z,16.54
2022-10-18T08:17:06.019Z,16.53
2022-10-18T08:19:33.238Z,16.55
2022-10-18T08:22:02.262Z,16.61
2022-10-18T08:24:43.869Z,16.59
2022-10-18T08:27:12.969Z,16.49
2022-10-18T08:29:56.507Z,16.51
2022-10-18T08:32:33.576Z,16.51
2022-10-18T08:35:05.671Z,16.50
2022-10-18T08:38:00.353Z,16.50
2022-10-18T08:40:27.911Z,16.41
2022-10-18T08:43:23.279Z,16.44
2022-10-18T08:46:00.150Z,16.42
2022-10-18T08:49:04.489Z,16.43
2022-10-18T08:51:58.141Z,16.44
2022-10-18T08:55:01.180Z,16.44
2022-10-18T08:57:29.025Z,16.44
2022-10-18T08:59:56.469Z,16.46
2022-10-18T09:03:02.824Z,16.47
2022-10-18T09:05:48.132Z,16.44
2022-10-18T09:08:55.426Z,16.46
2022-10-18T09:12:01.057Z,16.43
2022-10-18T09:57:55.622Z,16.32
2022-10-18T10:03:51.605Z,16.35
2022-10-18T10:09:22.452Z,16.36
2022-10-18T10:11:51.876Z,16.38
2022-10-18T10:14:27.354Z,16.30
2022-10-18T10:17:05.766Z,16.33
2022-10-18T10:19:37.774Z,16.36
2022-10-18T10:22:08.918Z,16.39
2022-10-18T10:24:53.268Z,16.42
2022-10-18T10:27:24.919Z,16.38
2022-10-18T10:29:57.665Z,16.38
2022-10-18T10:32:28.987Z,16.38
2022-10-18T10:34:56.451Z,16.44
2022-10-18T10:37:23.569Z,16.45
2022-10-18T10:40:20.516Z,16.49
2022-10-18T10:43:18.271Z,16.42
2022-10-18T10:46:06.659Z,16.47
2022-10-18T10:49:09.536Z,16.51
2022-10-18T10:51:42.111Z,16.55
2022-10-18T10:54:22.048Z,16.47
2022-10-18T10:57:00.482Z,16.48
2022-10-18T10:59:34.103Z,16.47
2022-10-18T11:02:20.622Z,16.56
2022-10-18T11:04:56.041Z,16.60
2022-10-18T11:07:43.529Z,16.54
2022-10-18T11:10:19.707Z,16.48
2022-10-18T11:13:05.626Z,16.41
2022-10-18T11:15:52.133Z,16.48
2022-10-18T11:18:38.632Z,16.50
2022-10-18T11:21:10.865Z,16.61
2022-10-18T11:23:39.521Z,16.66
2022-10-18T11:26:12.749Z,16.64
2022-10-18T11:28:59.063Z,16.64
2022-10-18T11:31:59.670Z,16.69
2022-10-18T11:35:04.386Z,16.75
2022-10-18T11:37:50.907Z,16.71
2022-10-18T11:40:35.005Z,16.61
2022-10-18T11:43:14.151Z,16.60
2022-10-18T11:46:00.036Z,16.62
2022-10-18T11:49:11.947Z,16.71
2022-10-18T11:52:08.237Z,16.83
2022-10-18T11:54:47.823Z,16.91
2022-10-18T11:57:47.125Z,16.91
2022-10-18T12:00:20.112Z,16.92
2022-10-18T12:03:00.943Z,16.80
2022-10-18T12:05:30.062Z,16.81
2022-10-18T12:08:14.022Z,16.82
2022-10-18T12:11:03.863Z,16.83
2022-10-18T12:13:41.068Z,16.81
2022-10-18T12:16:09.602Z,16.78
2022-10-18T12:18:45.840Z,16.88
2022-10-18T12:21:13.946Z,16.90
2022-10-18T12:23:49.919Z,16.91
2022-10-18T12:26:21.756Z,16.99
2022-10-18T12:29:10.759Z,17.07
2022-10-18T12:31:39.123Z,16.94
2022-10-18T12:34:21.250Z,17.00
2022-10-18T12:37:09.656Z,16.99
2022-10-18T12:40:09.082Z,17.06
2022-10-18T12:42:42.615Z,17.08
2022-10-18T12:45:28.212Z,17.11
2022-10-18T12:48:00.584Z,17.15
2022-10-18T12:50:37.682Z,17.18
2022-10-18T12:53:10.660Z,17.25
2022-10-18T12:55:39.923Z,17.22
2022-10-18T12:58:23.541Z,17.13
2022-10-18T13:01:12.328Z,17.16
2022-10-18T13:03:56.975Z,17.17
2022-10-18T13:06:24.529Z,17.14
2022-10-18T13:09:18.719Z,17.20
2022-10-18T13:11:45.999Z,17.20
2022-10-18T13:14:48.342Z,17.29
2022-10-18T13:17:45.459Z,17.34
2022-10-18T13:20:27.717Z,17.34
2022-10-18T13:23:24.031Z,17.34
2022-10-18T13:26:17.370Z,17.43
2022-10-18T13:28:57.198Z,17.33
2022-10-18T13:31:35.806Z,17.34
2022-10-18T13:34:23.054Z,17.43
2022-10-18T13:36:58.339Z,17.60
2022-10-18T13:39:26.277Z,17.68
2022-10-18T13:41:57.778Z,17.74
2022-10-18T13:44:39.937Z,17.81
2022-10-18T13:47:07.032Z,17.74
2022-10-18T13:49:40.345Z,17.59
2022-10-18T13:52:43.663Z,17.61
2022-10-18T13:55:50.759Z,17.51
2022-10-18T13:58:41.121Z,17.34
2022-10-18T14:01:17.873Z,17.25
2022-10-18T14:04:21.995Z,17.37
2022-10-18T14:06:49.391Z,17.27
2022-10-18T14:09:26.350Z,17.28
2022-10-18T14:12:26.606Z,17.34
2022-10-18T14:15:19.190Z,17.14
2022-10-18T14:18:13.951Z,17.25
2022-10-18T14:21:01.282Z,17.27
2022-10-18T14:23:35.849Z,17.22
2022-10-18T14:26:20.645Z,17.22
2022-10-18T14:29:16.267Z,17.15
2022-10-18T14:31:53.713Z,16.99
2022-10-18T14:34:21.503Z,16.75
2022-10-18T14:36:49.957Z,16.71
2022-10-18T14:39:29.004Z,16.65
2022-10-18T14:41:57.702Z,16.52
2022-10-18T14:44:30.312Z,16.49
2022-10-18T14:47:01.405Z,16.35
2022-10-18T14:49:29.243Z,16.40
2022-10-18T14:52:00.770Z,16.31
2022-10-18T14:54:33.571Z,16.20
2022-10-18T14:57:02.606Z,16.20
2022-10-18T14:59:40.651Z,16.10
2022-10-18T15:02:22.851Z,16.05
2022-10-18T15:05:05.513Z,15.98
2022-10-18T15:07:33.708Z,15.96
2022-10-18T15:10:02.840Z,15.94
2022-10-18T15:12:36.822Z,15.80
2022-10-18T15:15:22.693Z,15.87
2022-10-18T15:17:50.194Z,15.90
2022-10-18T15:20:26.731Z,15.90
2022-10-18T15:22:54.400Z,15.82
2022-10-18T15:25:22.411Z,15.82
2022-10-18T15:27:57.779Z,15.74
2022-10-18T15:30:37.817Z,15.71
2022-10-18T15:33:10.845Z,15.60
2022-10-18T15:35:39.328Z,15.58
2022-10-18T15:38:28.359Z,15.48
2022-10-18T15:40:55.480Z,15.44
2022-10-18T15:43:29.045Z,15.36
2022-10-18T15:46:01.731Z,15.28
2022-10-18T15:48:35.150Z,15.16
2022-10-18T15:51:07.828Z,15.09
2022-10-18T15:53:45.687Z,15.05
2022-10-18T15:56:26.735Z,15.02
2022-10-18T15:58:59.372Z,14.93
2022-10-18T16:01:37.751Z,14.91
2022-10-18T16:04:24.425Z,14.84
2022-10-18T16:06:51.657Z,14.81
2022-10-18T16:09:20.906Z,14.74
2022-10-18T16:11:54.276Z,14.65
2022-10-18T16:14:24.484Z,14.61
2022-10-18T16:16:57.082Z,14.61
2022-10-18T16:19:24.293Z,14.55
2022-10-18T16:21:52.768Z,14.50
2022-10-18T16:24:20.323Z,14.44
2022-10-18T16:26:48.100Z,14.41
2022-10-18T16:29:21.911Z,14.35
2022-10-18T16:31:50.808Z,14.31
2022-10-18T16:34:18.295Z,14.24
2022-10-18T16:36:45.676Z,14.20
2022-10-18T16:39:16.323Z,14.13
2022-10-18T16:41:43.863Z,14.11
2022-10-18T16:44:11.421Z,14.07
2022-10-18T16:46:38.816Z,14.02
2022-10-18T16:49:06.184Z,13.96
2022-10-18T16:51:33.575Z,13.89
2022-10-18T16:54:00.879Z,13.84
2022-10-18T16:56:30.722Z,13.80
2022-10-18T16:58:58.331Z,13.72
2022-10-18T17:01:26.239Z,13.67
2022-10-18T17:03:53.564Z,13.61
2022-10-18T17:06:29.324Z,13.55
2022-10-18T17:08:57.028Z,13.50
2022-10-18T17:11:26.690Z,13.34
2022-10-18T17:13:54.424Z,13.28
2022-10-18T17:19:03.614Z,13.06
2022-10-18T17:21:31.361Z,13.05
2022-10-18T17:24:00.811Z,12.98
2022-10-18T17:26:29.642Z,12.91
2022-10-18T17:29:00.657Z,12.87
2022-10-18T17:31:29.029Z,12.85
2022-10-18T17:33:58.295Z,12.79
2022-10-18T17:36:25.642Z,12.70
2022-10-18T17:38:54.049Z,12.66
2022-10-18T17:41:21.624Z,12.70
2022-10-18T17:43:49.091Z,12.68
2022-10-18T17:46:17.744Z,12.63
2022-10-18T17:48:45.239Z,12.59
2022-10-18T17:51:14.612Z,12.49
2022-10-18T17:53:42.160Z,12.36
2022-10-18T17:56:10.861Z,12.35
2022-10-18T17:58:38.319Z,12.32
2022-10-18T18:01:13.714Z,12.25
2022-10-18T18:03:41.524Z,12.15
2022-10-18T18:06:22.812Z,11.99
2022-10-18T18:08:50.910Z,11.98
2022-10-18T18:11:18.419Z,11.98
2022-10-18T18:13:45.578Z,11.94
2022-10-18T18:16:22.764Z,11.90
2022-10-18T18:18:52.415Z,11.87
2022-10-18T18:21:20.374Z,11.84
2022-10-18T18:23:47.755Z,11.79
2022-10-18T18:26:15.861Z,11.75
2022-10-18T18:28:43.210Z,11.75
2022-10-18T18:31:24.867Z,11.73
2022-10-18T18:33:54.040Z,11.70
2022-10-18T18:36:21.737Z,11.73
2022-10-18T18:38:53.041Z,11.75
2022-10-18T18:41:24.894Z,11.77
2022-10-18T18:43:53.188Z,11.75
2022-10-18T18:46:21.020Z,11.71
2022-10-18T18:48:48.780Z,11.72
2022-10-18T18:51:18.423Z,11.74
2022-10-18T18:53:46.581Z,11.72
2022-10-18T18:58:52.956Z,11.66
2022-10-18T19:01:23.314Z,11.67
2022-10-18T19:03:52.206Z,11.69
2022-10-18T19:06:21.732Z,11.70
2022-10-18T19:08:49.701Z,11.65
2022-10-18T19:11:20.650Z,11.63
2022-10-18T19:13:48.913Z,11.61
2022-10-18T19:16:32.230Z,11.59
2022-10-18T19:19:15.186Z,11.55
2022-10-18T19:21:45.488Z,11.56
2022-10-18T19:24:12.841Z,11.51
2022-10-18T19:26:47.969Z,11.50
2022-10-18T19:29:18.948Z,11.46
2022-10-18T19:31:46.508Z,11.43
2022-10-18T19:34:14.797Z,11.45
2022-10-18T19:36:43.896Z,11.41
2022-10-18T19:39:32.126Z,11.42
2022-10-18T19:42:03.205Z,11.35
2022-10-18T19:44:32.351Z,11.36
2022-10-18T19:46:59.860Z,11.32
2022-10-18T19:49:28.591Z,11.28
2022-10-18T19:51:56.514Z,11.25
2022-10-18T19:54:24.408Z,11.23
2022-10-18T19:56:51.916Z,11.24
2022-10-18T19:59:19.232Z,11.21
2022-10-18T20:01:46.670Z,11.17
2022-10-18T20:04:17.097Z,11.14
2022-10-18T20:06:44.632Z,11.07
2022-10-18T20:09:16.184Z,11.06
2022-10-18T20:11:46.700Z,11.02
2022-10-18T20:14:13.869Z,10.96
2022-10-18T20:16:41.019Z,10.93
2022-10-18T20:19:08.451Z,10.88
2022-10-18T20:21:36.177Z,10.82
2022-10-18T20:24:04.798Z,10.81
2022-10-18T20:26:32.717Z,10.73
2022-10-18T20:29:00.073Z,10.73
2022-10-18T20:31:31.674Z,10.71
2022-10-18T20:34:00.934Z,10.65
2022-10-18T20:36:28.704Z,10.61
2022-10-18T20:38:56.003Z,10.57
2022-10-18T20:41:26.383Z,10.56
2022-10-18T20:44:13.387Z,10.56
2022-10-18T20:46:41.393Z,10.51
2022-10-18T20:49:10.673Z,10.53
2022-10-18T20:51:37.775Z,10.48
2022-10-18T20:54:06.658Z,10.46
2022-10-18T20:56:35.388Z,10.48
2022-10-18T20:59:03.093Z,10.47
2022-10-18T21:01:32.019Z,10.43
2022-10-18T21:04:01.596Z,10.45
2022-10-18T21:06:30.843Z,10.45
2022-10-18T21:08:58.884Z,10.40
2022-10-18T21:11:27.803Z,10.37
2022-10-18T21:13:58.811Z,10.37
2022-10-18T21:16:27.010Z,10.37
2022-10-18T21:18:54.804Z,10.36
2022-10-18T21:21:25.599Z,10.34
2022-10-18T21:23:53.483Z,10.31
2022-10-18T21:26:26.076Z,10.32
2022-10-18T21:28:55.186Z,10.31
2022-10-18T21:31:24.971Z,10.26
2022-10-18T21:34:04.388Z,10.26
2022-10-18T21:36:33.871Z,10.24
2022-10-18T21:39:02.348Z,10.21
2022-10-18T21:41:30.521Z,10.19
2022-10-18T21:43:57.765Z,10.13
2022-10-18T21:46:28.408Z,10.18
2022-10-18T21:48:56.667Z,10.20
2022-10-18T21:51:28.045Z,10.20
2022-10-18T21:53:56.738Z,10.19
2022-10-18T21:56:26.477Z,10.16
2022-10-18T21:58:53.898Z,10.09
2022-10-18T22:01:27.132Z,10.09
2022-10-18T22:03:55.689Z,10.02
2022-10-18T22:06:23.762Z,10.02
2022-10-18T22:08:54.111Z,10.00
2022-10-18T22:11:30.287Z,9.98
2022-10-18T22:13:58.101Z,9.91
2022-10-18T22:16:26.054Z,9.92
2022-10-18T22:18:56.862Z,9.90
2022-10-18T22:21:24.083Z,9.92
2022-10-18T22:23:52.869Z,9.99
2022-10-18T22:26:33.641Z,10.08
2022-10-18T22:29:21.098Z,10.16
2022-10-18T22:31:50.488Z,10.16
2022-10-18T22:34:23.490Z,10.14
2022-10-18T22:36:50.918Z,10.11
2022-10-18T22:39:18.429Z,10.14
2022-10-18T22:41:46.553Z,10.25
2022-10-18T22:44:14.555Z,10.35
2022-10-18T22:46:41.964Z,10.43
2022-10-18T22:49:09.451Z,10.49
2022-10-18T22:51:36.680Z,10.55
2022-10-18T22:54:04.018Z,10.58
2022-10-18T22:56:31.172Z,10.56
2022-10-18T22:58:58.387Z,10.56
2022-10-18T23:01:25.583Z,10.64
2022-10-18T23:03:57.408Z,10.67
2022-10-18T23:06:29.498Z,10.68
2022-10-18T23:08:57.952Z,10.70
2022-10-18T23:11:26.692Z,10.77
2022-10-18T23:13:53.909Z,10.81
2022-10-18T23:16:21.431Z,10.86
2022-10-18T23:18:53.458Z,10.85
2022-10-18T23:21:20.813Z,10.78
2022-10-18T23:23:48.020Z,10.86
2022-10-18T23:26:17.238Z,10.87
2022-10-18T23:28:45.413Z,10.90
2022-10-18T23:31:18.833Z,10.91
2022-10-18T23:33:47.806Z,10.96
2022-10-18T23:36:15.431Z,11.01
2022-10-18T23:38:43.006Z,11.04
2022-10-18T23:41:11.813Z,11.02
2022-10-18T23:43:39.383Z,11.03
2022-10-18T23:46:06.809Z,11.09
2022-10-18T23:48:34.282Z,11.08
2022-10-18T23:51:02.097Z,11.09
2022-10-18T23:53:29.289Z,11.11
2022-10-18T23:55:58.938Z,11.15
2022-10-18T23:58:27.163Z,11.18
